Latest Coastal Weather Observations for Ulladulla

IDN60701

Issued at 3:55 am EST Friday 19 September 2014 (issued every 10 minutes, with the page automatically refreshed every 10 minutes)

About coastal observations | Map of coastal stations | Coastal observations for NSW | Marine services | Other Formats
Station Details ID: 069138 Name: ULLADULLA AWS Lat: -35.36 Lon: 150.48 Height: 35.7 m
Data from the previous 72 hours. | See also: Recent months at Ulladulla
Date/Time
EST
Temp

°C
Wind Pressure Rain
since 9am
mm
Weather Cloud Vis
km
Sea
Height
m
Swell
Dir
 
Speed
knots
Gust
knots
hPa Trend Height
m
Period
s
Dir
19/03:30am 8.7 W 5 7 1019.9 - 0.6 - - - - - - -
19/03:00am 8.8 W 4 6 1020.0 - 0.6 - - - - - - -
19/02:30am 9.6 W 4 5 1020.1 - 0.6 - - - - - - -
19/02:00am 9.7 W 4 5 1020.2 - 0.6 - - - - - - -
19/01:30am 9.4 W 4 5 1020.4 - 0.6 - - - - - - -
19/01:00am 9.0 W 4 6 1020.4 - 0.6 - - - - - - -
19/12:30am 9.0 NW 2 3 1020.5 - 0.6 - - - - - - -
19/12:00am 9.3 NW 2 3 1020.6 - 0.6 - - - - - - -
 
Date/Time
EST
Temp

°C
Wind Pressure Rain
since 9am
mm
Weather Cloud Vis
km
Sea
Height
m
Swell
Dir
 
Speed
knots
Gust
knots
hPa Trend Height
m
Period
s
Dir
18/11:30pm 9.3 CALM 0 0 1020.8 - 0.6 - - - - - - -
18/11:00pm 9.7 CALM 0 0 1020.7 - 0.6 - - - - - - -
18/10:30pm 9.2 WNW 2 4 1020.7 - 0.6 - - - - - - -
18/10:00pm 9.1 WNW 2 3 1020.7 - 0.6 - - - - - - -
18/09:30pm 9.7 WNW 3 4 1020.7 - 0.6 - - - - - - -
18/09:00pm 9.9 WNW 3 4 1020.7 - 0.6 - - - - - - -
18/08:30pm 10.1 NW 5 6 1020.6 - 0.6 - - - - - - -
18/08:00pm 10.8 NW 6 8 1020.5 - 0.6 - - - - - - -
18/07:30pm 11.3 NNW 5 7 1020.4 - 0.6 - - - - - - -
18/07:00pm 11.7 NW 6 9 1020.1 - 0.6 - - - - - - -
18/06:30pm 12.0 NW 5 10 1019.9 - 0.6 - - - - - - -
18/06:00pm 13.2 S 3 6 1019.4 - 0.6 Recent precip. - - - - - -
18/05:30pm 12.8 S 2 5 1019.0 - 0.6 - - - - - - -
18/05:00pm 13.7 S 9 12 1018.6 - 0.0 - - - - - - -
18/04:30pm 14.6 S 7 12 1018.0 - 0.0 - - - - - - -
18/04:00pm 14.8 SSE 5 8 1017.8 - 0.0 - - - - - - -
18/03:30pm 15.7 SSE 5 8 1017.5 - 0.0 - - - - - - -
18/03:00pm 15.8 SSE 6 10 1017.1 - 0.0 - - - - - - -
18/02:30pm 15.9 SSE 8 12 1017.0 - 0.0 - - - - - - -
18/02:00pm 16.0 SSE 9 13 1016.9 - 0.0 - - - - - - -
18/01:30pm 15.6 SSE 7 11 1017.2 - 0.0 - - - - - - -
18/01:00pm 16.1 SSE 8 14 1017.2 - 0.0 - - - - - - -
18/12:30pm 15.8 SSE 8 12 1017.4 - 0.0 - - - - - - -
18/12:00pm 16.1 SSE 7 12 1017.7 - 0.0 - - - - - - -
18/11:30am 16.0 S 8 12 1017.9 - 0.0 - - - - - - -
18/11:00am 15.7 S 10 14 1018.1 - 0.0 - - - - - - -
18/10:30am 15.9 S 9 14 1018.2 - 0.0 - - - - - - -
18/10:00am 15.6 SSW 9 14 1018.3 - 0.0 - - - - - - -
18/09:30am 15.6 SW 6 10 1018.2 - 0.0 - - - - - - -
18/09:00am 14.5 WSW 5 13 1018.2 - 0.0 - - - - - - -
18/08:30am 14.2 WSW 7 12 1018.0 - 0.0 - - - - - - -
18/08:00am 13.2 WSW 4 9 1017.8 - 0.0 - - - - - - -
18/07:30am 11.8 W 7 13 1017.4 - 0.0 - - - - - - -
18/07:00am 10.7 W 5 8 1017.4 - 0.0 - - - - - - -
18/06:30am 8.4 W 3 5 1017.1 - 0.0 - - - - - - -
18/06:00am 7.4 WSW 4 5 1016.5 - 0.0 - - - - - - -
18/05:30am 7.5 W 3 5 1016.1 - 0.0 - - - - - - -
18/05:00am 8.3 W 4 4 1015.8 - 0.0 - - - - - - -
18/04:30am 8.5 WSW 2 4 1015.5 - 0.0 - - - - - - -
18/04:00am 8.6 WSW 4 5 1015.2 - 0.0 - - - - - - -
18/03:30am 9.0 WSW 4 6 1014.9 - 0.0 - - - - - - -
18/03:00am 9.5 W 3 4 1014.8 - 0.0 - - - - - - -
18/02:30am 9.8 W 3 5 1014.7 - 0.0 - - - - - - -
18/02:00am 10.6 WSW 4 6 1014.7 - 0.0 - - - - - - -
18/01:30am 11.5 W 4 9 1014.8 - 0.0 - - - - - - -
18/01:00am 12.5 SSW 6 12 1014.6 - 0.0 - - - - - - -
18/12:30am 12.8 W 6 11 1014.3 - 0.0 - - - - - - -
18/12:00am 12.5 W 4 9 1014.2 - 0.0 - - - - - - -
 
Date/Time
EST
Temp

°C
Wind Pressure Rain
since 9am
mm
Weather Cloud Vis
km
Sea
Height
m
Swell
Dir
 
Speed
knots
Gust
knots
hPa Trend Height
m
Period
s
Dir
17/11:30pm 12.9 W 5 13 1014.1 - 0.0 - - - - - - -
17/11:00pm 13.5 W 6 11 1014.0 - 0.0 - - - - - - -
17/10:30pm 13.7 W 7 16 1013.6 - 0.0 - - - - - - -
17/10:00pm 13.9 W 7 16 1013.2 - 0.0 - - - - - - -
17/09:30pm 14.2 W 7 13 1012.8 - 0.0 - - - - - - -
17/09:00pm 14.4 W 7 12 1012.6 - 0.0 - - - - - - -
17/08:30pm 14.7 W 9 14 1012.1 - 0.0 - - - - - - -
17/08:00pm 15.0 W 9 17 1011.8 - 0.0 - - - - - - -
17/07:30pm 15.1 W 7 14 1011.6 - 0.0 - - - - - - -
17/07:00pm 15.6 WNW 8 16 1011.2 - 0.0 - - - - - - -
17/06:30pm 16.0 WNW 7 16 1010.7 - 0.0 - - - - - - -
17/06:00pm 16.6 WNW 10 16 1010.2 - 0.0 - - - - - - -
17/05:30pm 17.1 WNW 9 17 1009.8 - 0.0 - - - - - - -
17/05:00pm 18.0 WNW 8 13 1009.4 - 0.0 - - - - - - -
17/04:30pm 19.0 W 9 16 1009.0 - 0.0 - - - - - - -
17/04:00pm 19.5 W 10 18 1008.6 - 0.0 - - - - - - -
17/03:30pm 20.3 W 8 15 1008.3 - 0.0 - - - - - - -
17/03:00pm 20.6 W 9 17 1008.1 - 0.0 - - - - - - -
17/02:30pm 20.7 WSW 11 16 1008.0 - 0.0 - - - - - - -
17/02:00pm 21.1 W 10 18 1008.1 - 0.0 - - - - - - -
17/01:30pm 20.8 NW 13 19 1008.2 - 0.0 - - - - - - -
17/01:00pm 21.2 W 7 13 1008.5 - 0.0 - - - - - - -
17/12:30pm 21.1 W 7 13 1008.6 - 0.0 - - - - - - -
17/12:00pm 20.5 W 7 17 1009.1 - 0.0 - - - - - - -
17/11:30am 19.6 WSW 8 17 1009.5 - 0.0 - - - - - - -
17/11:00am 19.3 W 8 15 1009.9 - 0.0 - - - - - - -
17/10:30am 19.3 W 6 12 1010.1 - 0.0 - - - - - - -
17/10:00am 19.2 WSW 5 10 1010.3 - 0.0 - - - - - - -
17/09:30am 18.7 W 6 12 1010.7 - 0.0 - - - - - - -
17/09:00am 17.8 W 6 11 1011.0 - 0.0 - - - - - - -
17/08:30am 17.1 W 7 12 1011.1 - 0.0 - - - - - - -
17/08:00am 16.4 WNW 9 18 1010.9 - 0.0 - - - - - - -
17/07:30am 15.8 WNW 8 13 1010.6 - 0.0 - - - - - - -
17/07:00am 14.5 WNW 7 12 1010.2 - 0.0 - - - - - - -
17/06:30am 14.4 WNW 8 15 1009.9 - 0.0 - - - - - - -
17/06:00am 14.1 NW 5 9 1009.6 - 0.0 - - - - - - -
17/05:30am 14.2 NNW 3 5 1009.5 - 0.0 - - - - - - -
17/05:00am 14.9 WNW 4 8 1009.2 - 0.0 - - - - - - -
17/04:30am 15.2 WNW 6 11 1008.7 - 0.0 - - - - - - -
17/04:00am 15.1 WNW 6 12 1008.5 - 0.0 - - - - - - -
17/03:30am 15.1 NW 6 10 1008.3 - 0.0 - - - - - - -
17/03:00am 14.9 WNW 7 13 1008.2 - 0.0 - - - - - - -
17/02:30am 14.7 WNW 6 9 1008.1 - 0.0 - - - - - - -
17/02:00am 14.6 WNW 6 10 1008.3 - 0.0 - - - - - - -
17/01:30am 14.1 WNW 5 8 1008.6 - 0.0 - - - - - - -
17/01:00am 13.3 WSW 3 6 1008.7 - 0.0 - - - - - - -
17/12:30am 13.8 SW 4 6 1008.8 - 0.0 - - - - - - -
17/12:00am 14.4 SSW 4 6 1008.7 - 0.0 - - - - - - -
 
Date/Time
EST
Temp

°C
Wind Pressure Rain
since 9am
mm
Weather Cloud Vis
km
Sea
Height
m
Swell
Dir
 
Speed
knots
Gust
knots
hPa Trend Height
m
Period
s
Dir
16/11:30pm 15.1 W 6 13 1008.4 - 0.0 - - - - - - -
16/11:00pm 15.4 W 7 13 1008.1 - 0.0 - - - - - - -
16/10:30pm 15.8 W 8 15 1007.9 - 0.0 - - - - - - -
16/10:00pm 16.1 W 7 13 1008.0 - 0.0 - - - - - - -
16/09:30pm 16.3 W 8 16 1007.9 - 0.0 - - - - - - -
16/09:00pm 16.6 WNW 8 14 1007.5 - 0.0 - - - - - - -
16/08:30pm 16.7 W 7 16 1007.3 - 0.0 - - - - - - -
16/08:00pm 17.3 W 11 20 1006.9 - 0.0 - - - - - - -
16/07:30pm 17.7 WNW 11 18 1006.7 - 0.0 - - - - - - -
16/07:00pm 17.9 WNW 10 18 1006.5 - 0.0 - - - - - - -
16/06:30pm 17.9 WNW 7 13 1006.0 - 0.0 - - - - - - -
16/06:00pm 18.2 WNW 6 13 1006.2 - 0.0 - - - - - - -
16/05:30pm 18.9 WNW 7 14 1005.7 - 0.0 - - - - - - -
16/05:00pm 19.5 NW 9 15 1005.5 - 0.0 - - - - - - -
16/04:30pm 20.4 NW 9 15 1005.1 - 0.0 - - - - - - -
16/04:00pm 21.8 NW 9 15 1004.7 - 0.0 - - - - - - -
16/03:30pm 22.8 WNW 5 10 1004.9 - 0.0 - - - - - - -
16/03:00pm 23.1 NW 8 13 1004.8 - 0.0 - - - - - - -
16/02:30pm 20.1 E 4 9 1004.7 - 0.0 - - - - - - -
16/02:00pm 18.9 NNE 8 13 1005.0 - 0.0 - - - - - - -
16/01:30pm 19.4 NNE 12 16 1004.9 - 0.0 - - - - - - -
16/01:00pm 19.5 NNE 11 16 1005.3 - 0.0 - - - - - - -
16/12:30pm 19.9 NNE 9 13 1006.1 - 0.0 - - - - - - -
16/12:00pm 20.3 NNE 5 8 1006.9 - 0.0 - - - - - - -
16/11:30am 19.7 N 6 13 1008.1 - 0.0 - - - - - - -
16/11:00am 19.7 N 9 13 1008.9 - 0.0 - - - - - - -
16/10:30am 19.4 N 7 12 1009.1 - 0.0 - - - - - - -
16/10:00am 18.1 N 5 9 1009.4 - 0.0 - - - - - - -
16/09:30am 16.9 N 5 7 1010.0 - 0.0 - - - - - - -
16/09:00am 16.4 NNE 4 5 1010.4 - 1.4 - - - - - - -
16/08:30am 15.7 N 2 3 1010.7 - 1.4 - - - - - - -
16/08:00am 15.1 N 1 3 1010.9 - 1.4 - - - - - - -
16/07:30am 14.8 N 2 4 1010.5 - 1.4 - - - - - - -
16/07:00am 14.6 NNW 3 4 1010.7 - 1.4 - - - - - - -
16/06:30am 14.5 N 3 5 1010.3 - 1.4 - - - - - - -
16/06:00am 14.6 NW 6 10 1011.5 - 1.4 - - - - - - -
16/05:30am 14.9 N 8 13 1011.0 - 1.4 - - - - - - -
16/05:00am 14.4 N 5 7 1011.4 - 1.4 - - - - - - -
16/04:30am 14.5 N 6 10 1011.4 - 1.2 - - - - - - -
16/04:00am 14.8 N 8 12 1011.5 - 1.2 - - - - - - -

Other Formats:

Comma delimited format used in spreadsheet applications
http://www.bom.gov.au/fwo/IDN60701/IDN60701.94938.axf

JavaScript Object Notation format (JSON) in row-major order
http://www.bom.gov.au/fwo/IDN60701/IDN60701.94938.json